sensor_id;sensor_type;location;lat;lon;timestamp;pressure;altitude;pressure_sealevel;temperature;humidity
66945;BME280;53853;51.982;5.928;2022-08-21T00:00:33;101625.22;;;17.43;69.81
66945;BME280;53853;51.982;5.928;2022-08-21T00:03:10;101619.34;;;17.39;70.52
66945;BME280;53853;51.982;5.928;2022-08-21T00:05:43;101618.53;;;17.38;70.86
66945;BME280;53853;51.982;5.928;2022-08-21T00:08:16;101619.53;;;17.37;70.86
66945;BME280;53853;51.982;5.928;2022-08-21T00:10:47;101614.31;;;17.36;70.74
66945;BME280;53853;51.982;5.928;2022-08-21T00:13:19;101618.88;;;17.35;70.50
66945;BME280;53853;51.982;5.928;2022-08-21T00:15:50;101617.19;;;17.34;70.47
66945;BME280;53853;51.982;5.928;2022-08-21T00:18:20;101626.13;;;17.27;71.44
66945;BME280;53853;51.982;5.928;2022-08-21T00:20:50;101614.88;;;17.23;71.83
66945;BME280;53853;51.982;5.928;2022-08-21T00:23:22;101603.63;;;17.19;71.98
66945;BME280;53853;51.982;5.928;2022-08-21T00:25:52;101608.16;;;17.19;71.68
66945;BME280;53853;51.982;5.928;2022-08-21T00:28:22;101600.06;;;17.19;71.41
66945;BME280;53853;51.982;5.928;2022-08-21T00:30:52;101611.00;;;17.17;71.77
66945;BME280;53853;51.982;5.928;2022-08-21T00:33:23;101613.88;;;17.16;71.72
66945;BME280;53853;51.982;5.928;2022-08-21T00:35:53;101615.75;;;17.15;71.59
66945;BME280;53853;51.982;5.928;2022-08-21T00:38:25;101615.25;;;17.12;71.76
66945;BME280;53853;51.982;5.928;2022-08-21T00:40:58;101608.34;;;17.09;71.56
66945;BME280;53853;51.982;5.928;2022-08-21T00:43:31;101613.09;;;17.07;71.94
66945;BME280;53853;51.982;5.928;2022-08-21T00:46:03;101607.22;;;17.04;72.25
66945;BME280;53853;51.982;5.928;2022-08-21T00:48:34;101612.94;;;17.00;72.39
66945;BME280;53853;51.982;5.928;2022-08-21T00:51:07;101612.94;;;17.00;72.48
66945;BME280;53853;51.982;5.928;2022-08-21T00:53:43;101608.72;;;16.98;72.50
66945;BME280;53853;51.982;5.928;2022-08-21T00:56:14;101610.78;;;16.96;72.71
66945;BME280;53853;51.982;5.928;2022-08-21T00:58:44;101603.69;;;16.95;72.23
66945;BME280;53853;51.982;5.928;2022-08-21T01:01:14;101605.72;;;16.93;72.57
66945;BME280;53853;51.982;5.928;2022-08-21T01:03:45;101602.22;;;16.92;72.66
66945;BME280;53853;51.982;5.928;2022-08-21T01:06:15;101602.56;;;16.89;72.74
66945;BME280;53853;51.982;5.928;2022-08-21T01:08:48;101599.88;;;16.89;72.69
66945;BME280;53853;51.982;5.928;2022-08-21T01:11:18;101593.78;;;16.87;73.02
66945;BME280;53853;51.982;5.928;2022-08-21T01:13:49;101593.28;;;16.83;73.08
66945;BME280;53853;51.982;5.928;2022-08-21T01:16:21;101599.81;;;16.81;73.11
66945;BME280;53853;51.982;5.928;2022-08-21T01:18:52;101594.63;;;16.79;73.31
66945;BME280;53853;51.982;5.928;2022-08-21T01:21:26;101593.78;;;16.79;73.22
66945;BME280;53853;51.982;5.928;2022-08-21T01:23:57;101604.72;;;16.77;73.46
66945;BME280;53853;51.982;5.928;2022-08-21T01:26:29;101603.72;;;16.78;73.54
66945;BME280;53853;51.982;5.928;2022-08-21T01:29:06;101605.91;;;16.75;73.65
66945;BME280;53853;51.982;5.928;2022-08-21T01:31:37;101606.28;;;16.72;73.36
66945;BME280;53853;51.982;5.928;2022-08-21T01:34:08;101607.28;;;16.71;73.94
66945;BME280;53853;51.982;5.928;2022-08-21T01:36:40;101605.56;;;16.70;73.77
66945;BME280;53853;51.982;5.928;2022-08-21T01:39:10;101606.63;;;16.69;74.12
66945;BME280;53853;51.982;5.928;2022-08-21T01:41:41;101607.59;;;16.67;73.77
66945;BME280;53853;51.982;5.928;2022-08-21T01:44:11;101601.56;;;16.65;73.94
66945;BME280;53853;51.982;5.928;2022-08-21T01:46:41;101605.25;;;16.64;74.00
66945;BME280;53853;51.982;5.928;2022-08-21T01:49:10;101610.66;;;16.64;74.32
66945;BME280;53853;51.982;5.928;2022-08-21T01:51:43;101612.50;;;16.64;74.26
66945;BME280;53853;51.982;5.928;2022-08-21T01:54:13;101600.88;;;16.63;73.97
66945;BME280;53853;51.982;5.928;2022-08-21T01:56:46;101604.78;;;16.61;73.85
66945;BME280;53853;51.982;5.928;2022-08-21T01:59:16;101595.84;;;16.60;74.41
66945;BME280;53853;51.982;5.928;2022-08-21T02:01:46;101596.88;;;16.59;74.33
66945;BME280;53853;51.982;5.928;2022-08-21T02:04:16;101595.84;;;16.60;73.96
66945;BME280;53853;51.982;5.928;2022-08-21T02:06:49;101587.94;;;16.59;73.94
66945;BME280;53853;51.982;5.928;2022-08-21T02:09:19;101589.78;;;16.58;74.10
66945;BME280;53853;51.982;5.928;2022-08-21T02:11:49;101593.47;;;16.57;73.75
66945;BME280;53853;51.982;5.928;2022-08-21T02:14:19;101592.66;;;16.57;73.71
66945;BME280;53853;51.982;5.928;2022-08-21T02:16:49;101581.06;;;16.56;73.71
66945;BME280;53853;51.982;5.928;2022-08-21T02:19:19;101583.09;;;16.54;74.00
66945;BME280;53853;51.982;5.928;2022-08-21T02:21:51;101582.06;;;16.55;74.13
66945;BME280;53853;51.982;5.928;2022-08-21T02:24:21;101579.38;;;16.55;74.19
66945;BME280;53853;51.982;5.928;2022-08-21T02:26:51;101577.72;;;16.54;74.16
66945;BME280;53853;51.982;5.928;2022-08-21T02:29:20;101573.34;;;16.53;73.74
66945;BME280;53853;51.982;5.928;2022-08-21T02:31:50;101578.88;;;16.52;73.98
66945;BME280;53853;51.982;5.928;2022-08-21T02:34:20;101579.06;;;16.50;74.13
66945;BME280;53853;51.982;5.928;2022-08-21T02:36:52;101576.69;;;16.47;73.77
66945;BME280;53853;51.982;5.928;2022-08-21T02:39:22;101581.25;;;16.46;73.65
66945;BME280;53853;51.982;5.928;2022-08-21T02:41:52;101573.53;;;16.43;73.63
66945;BME280;53853;51.982;5.928;2022-08-21T02:44:22;101577.03;;;16.44;74.00
66945;BME280;53853;51.982;5.928;2022-08-21T02:46:51;101575.34;;;16.43;73.54
66945;BME280;53853;51.982;5.928;2022-08-21T02:49:22;101577.38;;;16.41;73.45
66945;BME280;53853;51.982;5.928;2022-08-21T02:51:54;101564.94;;;16.40;73.33
66945;BME280;53853;51.982;5.928;2022-08-21T02:54:24;101567.97;;;16.37;73.42
66945;BME280;53853;51.982;5.928;2022-08-21T02:56:54;101572.69;;;16.35;73.53
66945;BME280;53853;51.982;5.928;2022-08-21T02:59:24;101579.41;;;16.30;73.71
66945;BME280;53853;51.982;5.928;2022-08-21T03:01:54;101568.84;;;16.29;73.93
66945;BME280;53853;51.982;5.928;2022-08-21T03:04:23;101567.31;;;16.26;74.11
66945;BME280;53853;51.982;5.928;2022-08-21T03:06:56;101562.94;;;16.25;73.72
66945;BME280;53853;51.982;5.928;2022-08-21T03:09:26;101563.25;;;16.22;74.17
66945;BME280;53853;51.982;5.928;2022-08-21T03:11:56;101570.66;;;16.20;74.16
66945;BME280;53853;51.982;5.928;2022-08-21T03:14:26;101568.97;;;16.19;74.28
66945;BME280;53853;51.982;5.928;2022-08-21T03:16:56;101567.31;;;16.18;74.14
66945;BME280;53853;51.982;5.928;2022-08-21T03:19:25;101563.09;;;16.16;74.15
66945;BME280;53853;51.982;5.928;2022-08-21T03:21:58;101561.44;;;16.15;73.70
66945;BME280;53853;51.982;5.928;2022-08-21T03:24:28;101559.25;;;16.10;74.29
66945;BME280;53853;51.982;5.928;2022-08-21T03:26:57;101556.91;;;16.07;74.20
66945;BME280;53853;51.982;5.928;2022-08-21T03:29:27;101557.06;;;16.05;74.29
66945;BME280;53853;51.982;5.928;2022-08-21T03:31:57;101558.25;;;16.03;74.53
66945;BME280;53853;51.982;5.928;2022-08-21T03:34:27;101553.38;;;15.98;74.48
66945;BME280;53853;51.982;5.928;2022-08-21T03:36:59;101556.22;;;15.97;74.47
66945;BME280;53853;51.982;5.928;2022-08-21T03:39:29;101555.56;;;15.94;74.57
66945;BME280;53853;51.982;5.928;2022-08-21T03:41:59;101560.28;;;15.92;74.60
66945;BME280;53853;51.982;5.928;2022-08-21T03:44:29;101562.97;;;15.92;74.57
66945;BME280;53853;51.982;5.928;2022-08-21T03:46:59;101560.59;;;15.89;74.58
66945;BME280;53853;51.982;5.928;2022-08-21T03:49:29;101560.59;;;15.89;74.88
66945;BME280;53853;51.982;5.928;2022-08-21T03:52:02;101558.25;;;15.86;74.59
66945;BME280;53853;51.982;5.928;2022-08-21T03:54:32;101560.56;;;15.81;75.46
66945;BME280;53853;51.982;5.928;2022-08-21T03:57:02;101559.25;;;15.77;74.98
66945;BME280;53853;51.982;5.928;2022-08-21T03:59:32;101558.53;;;15.75;74.83
66945;BME280;53853;51.982;5.928;2022-08-21T04:02:05;101557.84;;;15.73;75.07
66945;BME280;53853;51.982;5.928;2022-08-21T04:04:35;101558.00;;;15.71;74.99
66945;BME280;53853;51.982;5.928;2022-08-21T04:07:08;101558.19;;;15.70;74.83
66945;BME280;53853;51.982;5.928;2022-08-21T04:09:38;101551.16;;;15.69;74.83
66945;BME280;53853;51.982;5.928;2022-08-21T04:12:08;101553.31;;;15.65;75.03
66945;BME280;53853;51.982;5.928;2022-08-21T04:14:38;101561.53;;;15.64;75.01
66945;BME280;53853;51.982;5.928;2022-08-21T04:17:08;101553.84;;;15.61;75.41
66945;BME280;53853;51.982;5.928;2022-08-21T04:19:38;101547.75;;;15.58;75.86
66945;BME280;53853;51.982;5.928;2022-08-21T04:22:10;101548.78;;;15.57;76.12
66945;BME280;53853;51.982;5.928;2022-08-21T04:24:40;101540.56;;;15.59;75.60
66945;BME280;53853;51.982;5.928;2022-08-21T04:27:10;101547.09;;;15.56;75.52
66945;BME280;53853;51.982;5.928;2022-08-21T04:29:41;101547.25;;;15.55;75.77
66945;BME280;53853;51.982;5.928;2022-08-21T04:32:10;101546.59;;;15.53;75.63
66945;BME280;53853;51.982;5.928;2022-08-21T04:34:40;101551.81;;;15.54;75.39
66945;BME280;53853;51.982;5.928;2022-08-21T04:37:12;101548.41;;;15.52;75.70
66945;BME280;53853;51.982;5.928;2022-08-21T04:39:42;101546.91;;;15.50;76.16
66945;BME280;53853;51.982;5.928;2022-08-21T04:42:12;101545.06;;;15.50;75.74
66945;BME280;53853;51.982;5.928;2022-08-21T04:44:42;101546.06;;;15.49;75.46
66945;BME280;53853;51.982;5.928;2022-08-21T04:47:12;101546.56;;;15.45;75.83
66945;BME280;53853;51.982;5.928;2022-08-21T04:49:44;101548.41;;;15.44;76.28
66945;BME280;53853;51.982;5.928;2022-08-21T04:52:21;101545.72;;;15.44;76.18
66945;BME280;53853;51.982;5.928;2022-08-21T04:54:52;101550.09;;;15.45;75.81
66945;BME280;53853;51.982;5.928;2022-08-21T04:57:22;101549.22;;;15.45;75.56
66945;BME280;53853;51.982;5.928;2022-08-21T04:59:53;101557.47;;;15.43;75.77
66945;BME280;53853;51.982;5.928;2022-08-21T05:02:23;101550.59;;;15.40;76.07
66945;BME280;53853;51.982;5.928;2022-08-21T05:04:54;101550.44;;;15.42;76.22
66945;BME280;53853;51.982;5.928;2022-08-21T05:07:30;101550.25;;;15.44;76.20
66945;BME280;53853;51.982;5.928;2022-08-21T05:10:01;101549.06;;;15.46;76.10
66945;BME280;53853;51.982;5.928;2022-08-21T05:12:31;101554.28;;;15.48;76.34
66945;BME280;53853;51.982;5.928;2022-08-21T05:15:02;101558.50;;;15.50;75.80
66945;BME280;53853;51.982;5.928;2022-08-21T05:17:32;101563.03;;;15.50;75.81
66945;BME280;53853;51.982;5.928;2022-08-21T05:20:02;101564.84;;;15.49;75.91
66945;BME280;53853;51.982;5.928;2022-08-21T05:22:35;101566.56;;;15.50;76.00
66945;BME280;53853;51.982;5.928;2022-08-21T05:25:07;101565.22;;;15.54;75.68
66945;BME280;53853;51.982;5.928;2022-08-21T05:27:37;101567.59;;;15.57;75.63
66945;BME280;53853;51.982;5.928;2022-08-21T05:30:09;101565.56;;;15.60;76.15
66945;BME280;53853;51.982;5.928;2022-08-21T05:32:39;101573.31;;;15.63;76.45
66945;BME280;53853;51.982;5.928;2022-08-21T05:35:09;101582.69;;;15.67;76.14
66945;BME280;53853;51.982;5.928;2022-08-21T05:37:41;101576.66;;;15.73;75.90
66945;BME280;53853;51.982;5.928;2022-08-21T05:40:12;101580.88;;;15.75;75.61
66945;BME280;53853;51.982;5.928;2022-08-21T05:42:42;101582.44;;;15.78;76.17
66945;BME280;53853;51.982;5.928;2022-08-21T05:45:11;101581.75;;;15.84;76.02
66945;BME280;53853;51.982;5.928;2022-08-21T05:47:41;101576.72;;;15.89;76.26
66945;BME280;53853;51.982;5.928;2022-08-21T05:50:11;101577.06;;;15.94;76.17
66945;BME280;53853;51.982;5.928;2022-08-21T05:52:44;101578.91;;;16.02;76.33
66945;BME280;53853;51.982;5.928;2022-08-21T05:55:13;101592.53;;;16.09;76.04
66945;BME280;53853;51.982;5.928;2022-08-21T05:57:43;101590.50;;;16.19;75.63
66945;BME280;53853;51.982;5.928;2022-08-21T06:00:14;101583.28;;;16.28;75.75
66945;BME280;53853;51.982;5.928;2022-08-21T06:02:44;101585.13;;;16.36;75.13
66945;BME280;53853;51.982;5.928;2022-08-21T06:05:15;101581.41;;;16.45;74.93
66945;BME280;53853;51.982;5.928;2022-08-21T06:07:48;101579.53;;;16.54;74.28
66945;BME280;53853;51.982;5.928;2022-08-21T06:10:18;101572.66;;;16.59;74.28
66945;BME280;53853;51.982;5.928;2022-08-21T06:12:53;101570.75;;;16.68;74.01
66945;BME280;53853;51.982;5.928;2022-08-21T06:15:23;101572.59;;;16.76;73.92
66945;BME280;53853;51.982;5.928;2022-08-21T06:17:53;101567.19;;;16.84;73.36
66945;BME280;53853;51.982;5.928;2022-08-21T06:20:23;101571.91;;;16.90;73.49
66945;BME280;53853;51.982;5.928;2022-08-21T06:22:56;101572.91;;;16.97;73.14
66945;BME280;53853;51.982;5.928;2022-08-21T06:25:26;101571.19;;;17.05;72.25
66945;BME280;53853;51.982;5.928;2022-08-21T06:28:01;101572.50;;;17.09;71.89
66945;BME280;53853;51.982;5.928;2022-08-21T06:30:31;101576.53;;;17.13;71.63
66945;BME280;53853;51.982;5.928;2022-08-21T06:33:01;101580.56;;;17.17;71.97
66945;BME280;53853;51.982;5.928;2022-08-21T06:35:31;101577.16;;;17.23;72.10
66945;BME280;53853;51.982;5.928;2022-08-21T06:38:03;101569.38;;;17.28;71.66
66945;BME280;53853;51.982;5.928;2022-08-21T06:40:34;101574.91;;;17.35;71.88
66945;BME280;53853;51.982;5.928;2022-08-21T06:43:09;101576.88;;;17.41;71.51
66945;BME280;53853;51.982;5.928;2022-08-21T06:45:40;101580.28;;;17.43;71.56
66945;BME280;53853;51.982;5.928;2022-08-21T06:48:10;101584.91;;;17.49;71.11
66945;BME280;53853;51.982;5.928;2022-08-21T06:50:40;101589.97;;;17.52;71.14
66945;BME280;53853;51.982;5.928;2022-08-21T06:53:17;101580.03;;;17.53;70.88
66945;BME280;53853;51.982;5.928;2022-08-21T06:55:48;101577.81;;;17.56;71.08
66945;BME280;53853;51.982;5.928;2022-08-21T06:58:18;101577.94;;;17.63;71.03
66945;BME280;53853;51.982;5.928;2022-08-21T07:00:50;101582.16;;;17.66;70.81
66945;BME280;53853;51.982;5.928;2022-08-21T07:03:23;101587.84;;;17.71;71.07
66945;BME280;53853;51.982;5.928;2022-08-21T07:05:54;101585.25;;;17.78;70.74
66945;BME280;53853;51.982;5.928;2022-08-21T07:08:28;101581.84;;;17.84;70.58
66945;BME280;53853;51.982;5.928;2022-08-21T07:11:00;101587.56;;;17.89;70.60
66945;BME280;53853;51.982;5.928;2022-08-21T07:13:31;101581.44;;;17.95;70.53
66945;BME280;53853;51.982;5.928;2022-08-21T07:16:01;101583.25;;;18.03;70.46
66945;BME280;53853;51.982;5.928;2022-08-21T07:18:31;101581.03;;;18.06;69.97
66945;BME280;53853;51.982;5.928;2022-08-21T07:21:02;101578.63;;;18.12;70.20
66945;BME280;53853;51.982;5.928;2022-08-21T07:23:37;101576.03;;;18.18;70.37
66945;BME280;53853;51.982;5.928;2022-08-21T07:26:08;101572.81;;;18.23;69.85
66945;BME280;53853;51.982;5.928;2022-08-21T07:28:38;101579.81;;;18.32;69.83
66945;BME280;53853;51.982;5.928;2022-08-21T07:31:10;101573.50;;;18.40;69.90
66945;BME280;53853;51.982;5.928;2022-08-21T07:33:41;101570.34;;;18.51;69.88
66945;BME280;53853;51.982;5.928;2022-08-21T07:36:11;101571.44;;;18.57;69.85
66945;BME280;53853;51.982;5.928;2022-08-21T07:38:44;101573.03;;;18.66;69.63
66945;BME280;53853;51.982;5.928;2022-08-21T07:41:16;101569.59;;;18.72;69.07
66945;BME280;53853;51.982;5.928;2022-08-21T07:43:46;101566.81;;;18.80;68.95
66945;BME280;53853;51.982;5.928;2022-08-21T07:46:16;101565.34;;;18.93;68.46
66945;BME280;53853;51.982;5.928;2022-08-21T07:48:46;101570.66;;;19.01;68.31
66945;BME280;53853;51.982;5.928;2022-08-21T07:51:17;101570.72;;;19.08;68.56
66945;BME280;53853;51.982;5.928;2022-08-21T07:53:52;101557.97;;;19.16;68.04
66945;BME280;53853;51.982;5.928;2022-08-21T07:56:22;101563.91;;;19.27;68.10
66945;BME280;53853;51.982;5.928;2022-08-21T07:58:53;101562.94;;;19.34;68.31
66945;BME280;53853;51.982;5.928;2022-08-21T08:01:24;101556.22;;;19.45;67.56
66945;BME280;53853;51.982;5.928;2022-08-21T08:03:54;101563.75;;;19.50;67.37
66945;BME280;53853;51.982;5.928;2022-08-21T08:06:24;101569.97;;;19.50;67.63
66945;BME280;53853;51.982;5.928;2022-08-21T08:08:56;101564.38;;;19.52;67.59
66945;BME280;53853;51.982;5.928;2022-08-21T08:11:29;101566.25;;;19.51;67.68
66945;BME280;53853;51.982;5.928;2022-08-21T08:13:59;101570.91;;;19.58;67.76
66945;BME280;53853;51.982;5.928;2022-08-21T08:16:30;101566.69;;;19.70;67.97
66945;BME280;53853;51.982;5.928;2022-08-21T08:19:00;101567.03;;;19.82;67.84
66945;BME280;53853;51.982;5.928;2022-08-21T08:21:30;101561.28;;;19.91;67.86
66945;BME280;53853;51.982;5.928;2022-08-21T08:24:03;101568.44;;;19.99;67.59
66945;BME280;53853;51.982;5.928;2022-08-21T08:26:33;101563.53;;;20.09;67.50
66945;BME280;53853;51.982;5.928;2022-08-21T08:29:03;101566.53;;;20.21;67.39
66945;BME280;53853;51.982;5.928;2022-08-21T08:31:33;101563.69;;;20.30;66.44
66945;BME280;53853;51.982;5.928;2022-08-21T08:34:03;101565.75;;;20.27;66.49
66945;BME280;53853;51.982;5.928;2022-08-21T08:36:34;101559.13;;;20.30;66.50
66945;BME280;53853;51.982;5.928;2022-08-21T08:39:07;101548.06;;;20.32;66.64
66945;BME280;53853;51.982;5.928;2022-08-21T08:41:37;101551.28;;;20.42;66.81
66945;BME280;53853;51.982;5.928;2022-08-21T08:44:07;101543.63;;;20.52;66.68
66945;BME280;53853;51.982;5.928;2022-08-21T08:46:44;101551.69;;;20.67;66.38
66945;BME280;53853;51.982;5.928;2022-08-21T08:49:20;101546.97;;;20.83;66.13
66945;BME280;53853;51.982;5.928;2022-08-21T08:51:55;101542.44;;;20.96;63.45
66945;BME280;53853;51.982;5.928;2022-08-21T08:54:33;101541.63;;;21.03;63.44
66945;BME280;53853;51.982;5.928;2022-08-21T08:57:09;101542.91;;;21.07;63.67
66945;BME280;53853;51.982;5.928;2022-08-21T08:59:41;101545.22;;;21.10;63.40
66945;BME280;53853;51.982;5.928;2022-08-21T09:02:14;101543.56;;;21.15;63.46
66945;BME280;53853;51.982;5.928;2022-08-21T09:04:47;101538.81;;;21.24;63.34
66945;BME280;53853;51.982;5.928;2022-08-21T09:07:27;101545.50;;;21.35;63.10
66945;BME280;53853;51.982;5.928;2022-08-21T09:10:12;101542.81;;;21.42;61.73
66945;BME280;53853;51.982;5.928;2022-08-21T09:12:53;101536.78;;;21.46;61.62
66945;BME280;53853;51.982;5.928;2022-08-21T09:15:31;101542.25;;;21.53;61.60
66945;BME280;53853;51.982;5.928;2022-08-21T09:18:19;101535.59;;;21.62;60.46
66945;BME280;53853;51.982;5.928;2022-08-21T09:21:00;101540.59;;;21.72;61.11
66945;BME280;53853;51.982;5.928;2022-08-21T09:23:49;101528.91;;;21.85;61.35
66945;BME280;53853;51.982;5.928;2022-08-21T09:26:24;101545.66;;;21.95;61.09
66945;BME280;53853;51.982;5.928;2022-08-21T09:28:58;101532.69;;;21.97;59.74
66945;BME280;53853;51.982;5.928;2022-08-21T09:31:31;101530.59;;;21.99;59.77
66945;BME280;53853;51.982;5.928;2022-08-21T09:34:03;101529.97;;;22.04;60.01
66945;BME280;53853;51.982;5.928;2022-08-21T09:36:39;101532.25;;;22.14;58.32
66945;BME280;53853;51.982;5.928;2022-08-21T09:39:12;101519.94;;;22.18;58.71
66945;BME280;53853;51.982;5.928;2022-08-21T09:41:44;101532.03;;;22.22;57.56
66945;BME280;53853;51.982;5.928;2022-08-21T09:44:25;101525.16;;;22.26;57.01
66945;BME280;53853;51.982;5.928;2022-08-21T09:46:56;101534.75;;;22.22;57.75
66945;BME280;53853;51.982;5.928;2022-08-21T09:49:28;101533.91;;;22.28;57.58
66945;BME280;53853;51.982;5.928;2022-08-21T09:51:59;101532.06;;;22.35;57.51
66945;BME280;53853;51.982;5.928;2022-08-21T09:54:31;101537.28;;;22.43;56.80
66945;BME280;53853;51.982;5.928;2022-08-21T09:57:16;101531.00;;;22.50;56.84
66945;BME280;53853;51.982;5.928;2022-08-21T10:00:24;101534.97;;;22.54;55.20
66945;BME280;53853;51.982;5.928;2022-08-21T10:03:12;101538.28;;;22.63;54.71
66945;BME280;53853;51.982;5.928;2022-08-21T10:05:53;101538.66;;;22.66;54.10
66945;BME280;53853;51.982;5.928;2022-08-21T10:08:30;101539.09;;;22.70;54.87
66945;BME280;53853;51.982;5.928;2022-08-21T10:11:07;101536.75;;;22.80;54.60
66945;BME280;53853;51.982;5.928;2022-08-21T10:13:47;101536.28;;;22.90;52.52
66945;BME280;53853;51.982;5.928;2022-08-21T10:16:29;101533.16;;;22.93;53.28
66945;BME280;53853;51.982;5.928;2022-08-21T10:19:14;101533.53;;;22.96;52.95
66945;BME280;53853;51.982;5.928;2022-08-21T10:21:55;101534.59;;;23.02;52.08
66945;BME280;53853;51.982;5.928;2022-08-21T10:24:32;101535.84;;;23.06;50.54
66945;BME280;53853;51.982;5.928;2022-08-21T10:27:13;101521.41;;;23.12;52.39
66945;BME280;53853;51.982;5.928;2022-08-21T10:29:53;101525.72;;;23.27;51.70
66945;BME280;53853;51.982;5.928;2022-08-21T10:32:35;101515.19;;;23.37;50.05
66945;BME280;53853;51.982;5.928;2022-08-21T10:35:10;101518.72;;;23.44;49.93
66945;BME280;53853;51.982;5.928;2022-08-21T10:37:54;101517.63;;;23.45;50.57
66945;BME280;53853;51.982;5.928;2022-08-21T10:40:31;101513.28;;;23.44;50.02
66945;BME280;53853;51.982;5.928;2022-08-21T10:43:20;101517.41;;;23.47;50.40
66945;BME280;53853;51.982;5.928;2022-08-21T10:46:02;101521.81;;;23.48;49.76
66945;BME280;53853;51.982;5.928;2022-08-21T10:48:39;101516.16;;;23.49;50.11
66945;BME280;53853;51.982;5.928;2022-08-21T10:51:15;101526.81;;;23.51;49.30
66945;BME280;53853;51.982;5.928;2022-08-21T10:53:54;101522.38;;;23.57;49.44
66945;BME280;53853;51.982;5.928;2022-08-21T10:56:26;101520.63;;;23.69;49.71
66945;BME280;53853;51.982;5.928;2022-08-21T10:59:05;101510.28;;;23.84;49.60
66945;BME280;53853;51.982;5.928;2022-08-21T11:01:46;101519.56;;;24.02;48.69
66945;BME280;53853;51.982;5.928;2022-08-21T11:04:23;101523.03;;;24.09;47.92
66945;BME280;53853;51.982;5.928;2022-08-21T11:07:02;101524.56;;;24.05;48.07
66945;BME280;53853;51.982;5.928;2022-08-21T11:09:33;101522.44;;;24.07;47.69
66945;BME280;53853;51.982;5.928;2022-08-21T11:12:10;101519.25;;;24.10;47.81
66945;BME280;53853;51.982;5.928;2022-08-21T11:14:51;101515.94;;;24.08;48.06
66945;BME280;53853;51.982;5.928;2022-08-21T11:17:31;101520.31;;;24.09;47.58
66945;BME280;53853;51.982;5.928;2022-08-21T11:20:07;101525.97;;;24.08;48.85
66945;BME280;53853;51.982;5.928;2022-08-21T11:22:48;101516.53;;;24.10;46.46
66945;BME280;53853;51.982;5.928;2022-08-21T11:25:26;101521.16;;;24.10;46.37
66945;BME280;53853;51.982;5.928;2022-08-21T11:28:00;101514.72;;;24.04;47.16
66945;BME280;53853;51.982;5.928;2022-08-21T11:30:39;101516.81;;;24.02;46.93
66945;BME280;53853;51.982;5.928;2022-08-21T11:33:25;101507.63;;;24.03;46.75
66945;BME280;53853;51.982;5.928;2022-08-21T11:36:00;101501.97;;;23.98;45.13
66945;BME280;53853;51.982;5.928;2022-08-21T11:38:35;101502.88;;;23.92;46.35
66945;BME280;53853;51.982;5.928;2022-08-21T11:41:17;101497.28;;;23.86;47.11
66945;BME280;53853;51.982;5.928;2022-08-21T11:44:02;101506.03;;;23.88;47.18
66945;BME280;53853;51.982;5.928;2022-08-21T11:46:39;101498.94;;;23.87;44.61
66945;BME280;53853;51.982;5.928;2022-08-21T11:49:31;101503.94;;;23.91;45.18
66945;BME280;53853;51.982;5.928;2022-08-21T11:52:12;101491.53;;;23.95;46.49
66945;BME280;53853;51.982;5.928;2022-08-21T11:54:59;101492.94;;;24.04;47.52
66945;BME280;53853;51.982;5.928;2022-08-21T11:57:36;101489.91;;;24.12;45.55
66945;BME280;53853;51.982;5.928;2022-08-21T12:00:15;101487.38;;;24.17;46.31
66945;BME280;53853;51.982;5.928;2022-08-21T12:02:51;101493.56;;;24.24;46.13
66945;BME280;53853;51.982;5.928;2022-08-21T12:05:31;101496.00;;;24.33;46.40
66945;BME280;53853;51.982;5.928;2022-08-21T12:08:14;101488.81;;;24.38;46.77
66945;BME280;53853;51.982;5.928;2022-08-21T12:10:58;101489.34;;;24.47;47.01
66945;BME280;53853;51.982;5.928;2022-08-21T12:13:30;101499.53;;;24.58;44.96
66945;BME280;53853;51.982;5.928;2022-08-21T12:16:08;101503.81;;;24.66;44.21
66945;BME280;53853;51.982;5.928;2022-08-21T12:18:39;101503.59;;;24.68;44.66
66945;BME280;53853;51.982;5.928;2022-08-21T12:21:25;101496.03;;;24.70;42.94
66945;BME280;53853;51.982;5.928;2022-08-21T12:24:04;101498.09;;;24.74;44.19
66945;BME280;53853;51.982;5.928;2022-08-21T12:26:50;101498.81;;;24.82;43.58
66945;BME280;53853;51.982;5.928;2022-08-21T12:29:26;101501.31;;;24.83;44.03
66945;BME280;53853;51.982;5.928;2022-08-21T12:32:00;101504.41;;;24.87;42.94
66945;BME280;53853;51.982;5.928;2022-08-21T12:34:37;101508.22;;;24.86;43.17
66945;BME280;53853;51.982;5.928;2022-08-21T12:37:18;101507.69;;;24.77;42.13
66945;BME280;53853;51.982;5.928;2022-08-21T12:39:52;101508.13;;;24.74;43.60
66945;BME280;53853;51.982;5.928;2022-08-21T12:42:27;101505.13;;;24.82;43.43
66945;BME280;53853;51.982;5.928;2022-08-21T12:45:02;101502.44;;;24.94;43.17
66945;BME280;53853;51.982;5.928;2022-08-21T12:47:36;101498.13;;;25.05;42.41
66945;BME280;53853;51.982;5.928;2022-08-21T12:50:16;101501.72;;;25.17;42.18
66945;BME280;53853;51.982;5.928;2022-08-21T12:52:58;101503.69;;;25.28;40.91
66945;BME280;53853;51.982;5.928;2022-08-21T12:55:31;101496.09;;;25.30;41.40
66945;BME280;53853;51.982;5.928;2022-08-21T12:58:01;101499.19;;;25.34;41.62
66945;BME280;53853;51.982;5.928;2022-08-21T13:00:34;101495.75;;;25.39;41.76
66945;BME280;53853;51.982;5.928;2022-08-21T13:03:04;101496.13;;;25.42;41.87
66945;BME280;53853;51.982;5.928;2022-08-21T13:05:36;101496.97;;;25.43;41.90
66945;BME280;53853;51.982;5.928;2022-08-21T13:08:11;101497.09;;;25.48;40.66
66945;BME280;53853;51.982;5.928;2022-08-21T13:10:44;101503.75;;;25.52;40.22
66945;BME280;53853;51.982;5.928;2022-08-21T13:13:20;101507.44;;;25.58;39.92
66945;BME280;53853;51.982;5.928;2022-08-21T13:15:55;101500.56;;;25.55;40.12
66945;BME280;53853;51.982;5.928;2022-08-21T13:18:28;101499.94;;;25.53;38.49
66945;BME280;53853;51.982;5.928;2022-08-21T13:21:07;101503.75;;;25.52;38.97